createdAt,value
2018-12-01T00:00:18.513Z,99.03
2018-12-01T00:02:47.835Z,98.84
2018-12-01T00:05:16.642Z,99.12
2018-12-01T00:07:45.192Z,99.06
2018-12-01T00:10:13.922Z,98.73
2018-12-01T00:12:43.580Z,99.26
2018-12-01T00:15:17.710Z,98.23
2018-12-01T00:17:46.454Z,98.91
2018-12-01T00:20:16.535Z,98.34
2018-12-01T00:22:45.322Z,98.79
2018-12-01T00:25:14.018Z,99.18
2018-12-01T00:27:42.526Z,98.39
2018-12-01T00:30:12.394Z,99.42
2018-12-01T00:32:41.254Z,98.62
2018-12-01T00:35:10.955Z,99.04
2018-12-01T00:37:39.513Z,99.18
2018-12-01T00:40:14.040Z,99.75
2018-12-01T00:42:42.661Z,99.29
2018-12-01T00:45:13.326Z,98.93
2018-12-01T00:47:42.259Z,99.53
2018-12-01T00:50:12.393Z,99.75
2018-12-01T00:52:40.895Z,99.08
2018-12-01T00:55:11.922Z,99.61
2018-12-01T00:57:41.329Z,99.07
2018-12-01T01:00:17.263Z,99.36
2018-12-01T01:02:51.014Z,99.05
2018-12-01T01:05:20.834Z,98.97
2018-12-01T01:07:49.496Z,98.41
2018-12-01T01:10:18.256Z,98.47
2018-12-01T01:12:47.796Z,98.45
2018-12-01T01:15:17.332Z,98.40
2018-12-01T01:17:46.712Z,98.94
2018-12-01T01:20:17.898Z,98.17
2018-12-01T01:22:47.265Z,98.94
2018-12-01T01:25:16.356Z,98.45
2018-12-01T01:27:45.238Z,98.13
2018-12-01T01:30:20.186Z,97.98
2018-12-01T01:32:49.834Z,98.08
2018-12-01T01:35:21.002Z,99.01
2018-12-01T01:37:50.504Z,99.10
2018-12-01T01:40:21.271Z,99.37
2018-12-01T01:42:50.405Z,99.86
2018-12-01T01:45:20.329Z,99.73
2018-12-01T01:47:48.864Z,99.71
2018-12-01T01:50:21.144Z,99.78
2018-12-01T01:52:49.949Z,99.67
2018-12-01T01:55:19.843Z,99.87
2018-12-01T01:57:48.849Z,99.58
2018-12-01T02:00:18.648Z,99.32
2018-12-01T02:02:49.979Z,99.31
2018-12-01T02:05:22.263Z,98.60
2018-12-01T02:07:50.895Z,98.72
2018-12-01T02:10:20.447Z,98.29
2018-12-01T02:12:48.961Z,99.03
2018-12-01T02:15:17.564Z,98.57
2018-12-01T02:17:46.051Z,98.96
2018-12-01T02:20:16.274Z,99.60
2018-12-01T02:22:45.087Z,98.89
2018-12-01T02:25:16.204Z,98.91
2018-12-01T02:27:44.874Z,97.57
2018-12-01T02:30:14.490Z,97.46
2018-12-01T02:32:43.085Z,97.84
2018-12-01T02:35:13.899Z,98.64
2018-12-01T02:37:42.982Z,98.41
2018-12-01T02:40:12.652Z,98.70
2018-12-01T02:42:41.883Z,98.28
2018-12-01T02:45:22.415Z,98.01
2018-12-01T02:47:50.904Z,97.31
2018-12-01T02:50:24.508Z,97.38
2018-12-01T02:52:58.015Z,97.41
2018-12-01T02:55:27.267Z,96.79
2018-12-01T02:57:55.882Z,97.18
2018-12-01T03:00:24.437Z,96.73
2018-12-01T03:02:52.926Z,96.83
2018-12-01T03:05:22.968Z,97.33
2018-12-01T03:07:52.890Z,95.85
2018-12-01T03:10:21.753Z,96.10
2018-12-01T03:12:52.021Z,95.85
2018-12-01T03:15:21.347Z,96.21
2018-12-01T03:17:50.928Z,95.52
2018-12-01T03:20:20.181Z,95.82
2018-12-01T03:22:48.754Z,94.87
2018-12-01T03:25:23.022Z,95.38
2018-12-01T03:27:52.647Z,95.87
2018-12-01T03:30:22.227Z,96.27
2018-12-01T03:32:51.509Z,95.52
2018-12-01T03:35:21.600Z,96.20
2018-12-01T03:37:50.698Z,96.18
2018-12-01T03:40:20.613Z,95.74
2018-12-01T03:42:50.755Z,94.80
2018-12-01T03:45:20.330Z,95.84
2018-12-01T03:47:49.857Z,95.72
2018-12-01T03:50:22.119Z,95.88
2018-12-01T03:52:54.936Z,96.08
2018-12-01T03:55:32.387Z,95.78
2018-12-01T03:58:01.500Z,95.74
2018-12-01T04:00:31.279Z,96.03
2018-12-01T04:03:01.558Z,97.06
2018-12-01T04:05:30.182Z,96.89
2018-12-01T04:08:00.177Z,96.87
2018-12-01T04:10:28.667Z,97.19
2018-12-01T04:12:57.516Z,96.42
2018-12-01T04:15:27.080Z,97.04
2018-12-01T04:17:55.564Z,96.73
2018-12-01T04:20:24.144Z,96.33
2018-12-01T04:22:52.760Z,96.77
2018-12-01T04:25:21.596Z,97.03
2018-12-01T04:27:51.124Z,96.50
2018-12-01T04:30:23.507Z,96.34
2018-12-01T04:32:53.141Z,96.01
2018-12-01T04:35:23.404Z,95.61
2018-12-01T04:37:53.043Z,95.35
2018-12-01T04:40:21.565Z,95.24
2018-12-01T04:42:50.081Z,96.19
2018-12-01T04:45:18.945Z,95.90
2018-12-01T04:47:47.599Z,96.17
2018-12-01T04:50:17.363Z,95.36
2018-12-01T04:52:46.782Z,95.35
2018-12-01T04:55:16.505Z,96.47
2018-12-01T04:57:45.112Z,95.23
2018-12-01T05:00:15.215Z,95.40
2018-12-01T05:02:43.689Z,95.51
2018-12-01T05:05:13.649Z,94.92
2018-12-01T05:07:42.145Z,95.64
2018-12-01T05:10:12.759Z,94.91
2018-12-01T05:12:41.299Z,95.29
2018-12-01T05:15:14.927Z,95.31
2018-12-01T05:17:43.588Z,95.65
2018-12-01T05:20:27.835Z,95.48
2018-12-01T05:22:56.377Z,95.82
2018-12-01T05:25:25.207Z,95.61
2018-12-01T05:27:53.782Z,95.64
2018-12-01T05:30:23.236Z,95.93
2018-12-01T05:32:51.685Z,95.00
2018-12-01T05:35:23.358Z,94.88
2018-12-01T05:37:51.829Z,95.18
2018-12-01T05:40:20.918Z,94.48
2018-12-01T05:42:49.399Z,94.62
2018-12-01T05:45:20.255Z,94.19
2018-12-01T05:47:48.937Z,93.71
2018-12-01T05:50:22.260Z,93.43
2018-12-01T05:52:51.853Z,94.22
2018-12-01T05:55:20.999Z,93.63
2018-12-01T05:57:49.483Z,93.66
2018-12-01T06:00:18.760Z,92.66
2018-12-01T06:02:47.251Z,92.92
2018-12-01T06:05:17.038Z,92.74
2018-12-01T06:07:46.824Z,91.82
2018-12-01T06:10:21.397Z,92.86
2018-12-01T06:12:51.572Z,91.89
2018-12-01T06:15:22.410Z,91.97
2018-12-01T06:17:50.937Z,92.50
2018-12-01T06:20:20.734Z,92.84
2018-12-01T06:22:49.236Z,93.33
2018-12-01T06:25:20.066Z,93.53
2018-12-01T06:27:48.535Z,93.07
2018-12-01T06:30:17.957Z,93.71
2018-12-01T06:32:47.073Z,94.29
2018-12-01T06:35:16.207Z,94.69
2018-12-01T06:37:44.860Z,94.73
2018-12-01T06:40:21.086Z,94.38
2018-12-01T06:42:49.992Z,92.66
2018-12-01T06:45:19.256Z,94.48
2018-12-01T06:47:47.836Z,94.53
2018-12-01T06:50:20.735Z,94.70
2018-12-01T06:52:49.423Z,94.46
2018-12-01T06:55:18.788Z,94.41
2018-12-01T06:57:47.789Z,95.84
2018-12-01T07:00:18.531Z,96.64
2018-12-01T07:02:47.915Z,96.48
2018-12-01T07:05:17.831Z,96.92
2018-12-01T07:07:46.310Z,97.20
2018-12-01T07:10:15.697Z,96.95
2018-12-01T07:12:45.949Z,96.95
2018-12-01T07:15:17.224Z,96.39
2018-12-01T07:17:45.791Z,97.00
2018-12-01T07:20:14.388Z,97.04
2018-12-01T07:22:42.978Z,96.81
2018-12-01T07:25:12.927Z,96.59
2018-12-01T07:27:41.371Z,96.43
2018-12-01T07:30:12.025Z,96.21
2018-12-01T07:32:42.177Z,96.17
2018-12-01T07:35:11.445Z,96.27
2018-12-01T07:37:40.333Z,95.84
2018-12-01T07:40:17.082Z,96.21
2018-12-01T07:42:45.605Z,96.30
2018-12-01T07:45:16.518Z,95.99
2018-12-01T07:47:45.068Z,96.80
2018-12-01T07:50:14.595Z,96.69
2018-12-01T07:52:44.611Z,96.47
2018-12-01T07:55:13.095Z,95.67
2018-12-01T07:57:41.685Z,94.99
2018-12-01T08:00:13.432Z,94.70
2018-12-01T08:02:42.718Z,94.88
2018-12-01T08:05:11.959Z,94.21
2018-12-01T08:07:41.244Z,94.96
2018-12-01T08:10:11.600Z,94.73
2018-12-01T08:12:40.116Z,94.90
2018-12-01T08:15:17.814Z,93.94
2018-12-01T08:17:47.156Z,93.91
2018-12-01T08:20:16.655Z,94.40
2018-12-01T08:22:45.168Z,94.51
2018-12-01T08:25:16.497Z,94.20
2018-12-01T08:27:46.390Z,94.02
2018-12-01T08:30:22.322Z,93.26
2018-12-01T08:32:50.853Z,93.23
2018-12-01T08:35:19.664Z,93.01
2018-12-01T08:37:48.095Z,93.23
2018-12-01T08:40:19.685Z,92.22
2018-12-01T08:42:48.184Z,92.47
2018-12-01T08:45:16.662Z,92.66
2018-12-01T08:47:45.211Z,92.31
2018-12-01T08:50:14.881Z,91.88
2018-12-01T08:52:44.883Z,92.60
2018-12-01T08:55:17.054Z,91.79
2018-12-01T08:57:45.731Z,91.61
2018-12-01T09:00:16.412Z,91.24
2018-12-01T09:02:45.725Z,91.74
2018-12-01T09:05:15.491Z,93.07
2018-12-01T09:07:44.030Z,92.34
2018-12-01T09:10:12.553Z,92.29
2018-12-01T09:12:41.066Z,92.67
2018-12-01T09:15:10.862Z,92.33
2018-12-01T09:17:39.952Z,93.33
2018-12-01T09:20:11.646Z,91.95
2018-12-01T09:22:42.489Z,92.16
2018-12-01T09:25:13.120Z,92.22
2018-12-01T09:27:42.679Z,93.58
2018-12-01T09:30:15.549Z,92.77
2018-12-01T09:32:44.145Z,92.50
2018-12-01T09:35:13.149Z,93.61
2018-12-01T09:37:41.722Z,93.24
2018-12-01T09:40:12.978Z,92.94
2018-12-01T09:42:41.581Z,92.53
2018-12-01T09:45:12.306Z,91.92
2018-12-01T09:47:41.269Z,93.59
2018-12-01T09:50:12.845Z,94.00
2018-12-01T09:52:41.294Z,93.55
2018-12-01T09:55:11.792Z,94.03
2018-12-01T09:57:41.191Z,92.61
2018-12-01T10:00:13.973Z,92.35
2018-12-01T10:02:42.914Z,92.25
2018-12-01T10:05:14.513Z,91.92
2018-12-01T10:07:42.964Z,92.36
2018-12-01T10:10:13.668Z,90.45
2018-12-01T10:12:42.765Z,89.38
2018-12-01T10:15:20.073Z,90.13
2018-12-01T10:17:48.609Z,90.90
2018-12-01T10:20:20.477Z,92.59
2018-12-01T10:22:49.513Z,91.81
2018-12-01T10:25:18.573Z,91.89
2018-12-01T10:27:47.699Z,89.40
2018-12-01T10:30:19.320Z,89.44
2018-12-01T10:32:48.311Z,89.92
2018-12-01T10:35:20.134Z,90.93
2018-12-01T10:37:51.902Z,91.57
2018-12-01T10:40:20.495Z,91.17
2018-12-01T10:42:49.062Z,90.80
2018-12-01T10:45:19.878Z,91.52
2018-12-01T10:47:48.365Z,90.49
2018-12-01T10:50:19.127Z,89.15
2018-12-01T10:52:49.431Z,89.61
2018-12-01T10:55:26.890Z,91.09
2018-12-01T10:58:18.567Z,90.94
2018-12-01T11:00:53.267Z,88.35
2018-12-01T11:03:27.698Z,89.69
2018-12-01T11:05:57.629Z,87.33
2018-12-01T11:08:26.195Z,87.04
2018-12-01T11:10:55.385Z,87.72
2018-12-01T11:13:23.797Z,87.53
2018-12-01T11:15:52.304Z,85.17
2018-12-01T11:18:20.829Z,86.54
2018-12-01T11:20:49.359Z,86.65
2018-12-01T11:23:18.170Z,86.38
2018-12-01T11:25:46.600Z,85.55
2018-12-01T11:28:16.678Z,84.78
2018-12-01T11:30:45.165Z,82.91
2018-12-01T11:33:14.178Z,84.71
2018-12-01T11:35:43.250Z,81.87
2018-12-01T11:38:12.558Z,80.09
2018-12-01T11:40:41.152Z,79.49
2018-12-01T11:43:11.361Z,76.93
2018-12-01T11:45:40.114Z,78.86
2018-12-01T11:48:09.365Z,79.10
2018-12-01T11:50:39.059Z,77.84
2018-12-01T11:53:07.621Z,77.74
2018-12-01T11:55:36.172Z,79.18
2018-12-01T11:58:04.902Z,77.79
2018-12-01T12:00:33.433Z,77.89
2018-12-01T12:03:02.940Z,79.05
2018-12-01T12:05:31.941Z,79.67
2018-12-01T12:08:17.803Z,79.36
2018-12-01T12:10:46.444Z,78.43
2018-12-01T12:13:16.170Z,79.89
2018-12-01T12:15:45.083Z,80.55
2018-12-01T12:18:14.182Z,79.91
2018-12-01T12:20:42.764Z,78.67
2018-12-01T12:23:11.370Z,78.00
2018-12-01T12:25:40.739Z,78.30
2018-12-01T12:28:10.399Z,78.11
2018-12-01T12:30:39.715Z,77.95
2018-12-01T12:33:08.443Z,79.00
2018-12-01T12:35:37.846Z,78.80
2018-12-01T12:38:07.008Z,78.36
2018-12-01T12:40:35.782Z,79.13
2018-12-01T12:43:04.345Z,78.04
2018-12-01T12:45:33.838Z,77.71
2018-12-01T12:48:02.465Z,78.37
2018-12-01T12:50:30.944Z,77.36
2018-12-01T12:52:59.465Z,77.38
2018-12-01T12:55:28.294Z,76.55
2018-12-01T12:57:57.133Z,77.72
2018-12-01T13:00:27.234Z,79.08
2018-12-01T13:03:14.931Z,78.22
2018-12-01T13:05:45.469Z,77.97
2018-12-01T13:08:15.396Z,77.56
2018-12-01T13:10:43.944Z,78.37
2018-12-01T13:13:13.399Z,78.06
2018-12-01T13:15:41.937Z,78.27
2018-12-01T13:18:15.080Z,77.91
2018-12-01T13:20:45.052Z,78.66
2018-12-01T13:23:14.621Z,77.99
2018-12-01T13:25:43.427Z,77.96
2018-12-01T13:28:22.788Z,79.40
2018-12-01T13:30:53.702Z,79.33
2018-12-01T13:33:23.255Z,78.73
2018-12-01T13:35:51.781Z,77.69
2018-12-01T13:38:20.498Z,76.75
2018-12-01T13:40:49.098Z,77.47
2018-12-01T13:43:18.386Z,78.42
2018-12-01T13:45:46.915Z,77.39
2018-12-01T13:48:15.410Z,77.90
2018-12-01T13:50:43.972Z,78.15
2018-12-01T13:53:13.581Z,76.98
2018-12-01T13:55:42.112Z,77.43
2018-12-01T13:58:12.330Z,77.64
2018-12-01T14:00:41.734Z,77.03
2018-12-01T14:03:10.827Z,78.09
2018-12-01T14:05:40.602Z,78.03
2018-12-01T14:08:09.509Z,77.52
2018-12-01T14:10:40.594Z,77.79
2018-12-01T14:13:12.013Z,77.37
2018-12-01T14:15:40.523Z,77.30
2018-12-01T14:18:09.893Z,77.69
2018-12-01T14:20:39.729Z,76.86
2018-12-01T14:23:08.238Z,78.17
2018-12-01T14:25:36.857Z,76.70
2018-12-01T14:28:07.711Z,77.39
2018-12-01T14:30:36.286Z,78.17
2018-12-01T14:33:04.937Z,78.50
2018-12-01T14:35:34.825Z,78.52
2018-12-01T14:38:16.307Z,78.47
2018-12-01T14:40:46.901Z,79.67
2018-12-01T14:43:15.937Z,78.89
2018-12-01T14:45:45.831Z,79.67
2018-12-01T14:48:14.325Z,81.02
2018-12-01T14:50:48.386Z,80.83
2018-12-01T14:53:12.960Z,79.83
2018-12-01T14:55:41.475Z,80.16
2018-12-01T14:58:10.090Z,79.77
2018-12-01T15:00:39.061Z,79.33
2018-12-01T15:03:08.528Z,79.73
2018-12-01T15:05:37.981Z,80.51
2018-12-01T15:08:07.215Z,79.96
2018-12-01T15:10:36.110Z,80.14
2018-12-01T15:13:05.337Z,80.33
2018-12-01T15:15:33.799Z,80.51
2018-12-01T15:18:02.905Z,80.48
2018-12-01T15:20:31.532Z,80.72
2018-12-01T15:23:01.336Z,81.73
2018-12-01T15:25:30.501Z,81.10
2018-12-01T15:27:59.156Z,81.55
2018-12-01T15:30:29.357Z,80.79
2018-12-01T15:33:10.535Z,81.19
2018-12-01T15:35:39.400Z,80.92
2018-12-01T15:38:08.982Z,80.29
2018-12-01T15:40:38.357Z,81.16
2018-12-01T15:43:08.450Z,81.24
2018-12-01T15:45:36.981Z,81.51
2018-12-01T15:48:06.065Z,81.59
2018-12-01T15:50:34.603Z,81.40
2018-12-01T15:53:03.261Z,81.01
2018-12-01T15:55:31.797Z,81.85
2018-12-01T15:58:00.571Z,81.75
2018-12-01T16:00:29.156Z,83.00
2018-12-01T16:02:58.962Z,81.66
2018-12-01T16:05:28.081Z,82.38
2018-12-01T16:07:59.421Z,82.41
2018-12-01T16:10:27.961Z,82.28
2018-12-01T16:13:14.186Z,82.35
2018-12-01T16:15:45.843Z,82.93
2018-12-01T16:18:14.705Z,83.73
2018-12-01T16:20:43.256Z,84.32
2018-12-01T16:23:12.697Z,84.34
2018-12-01T16:25:41.882Z,84.60
2018-12-01T16:28:10.550Z,85.01
2018-12-01T16:30:41.242Z,84.50
2018-12-01T16:33:13.662Z,86.74
2018-12-01T16:35:42.163Z,86.31
2018-12-01T16:38:22.605Z,85.70
2018-12-01T16:40:56.573Z,87.51
2018-12-01T16:43:25.988Z,86.65
2018-12-01T16:45:54.765Z,86.85
2018-12-01T16:48:23.308Z,87.72
2018-12-01T16:50:51.867Z,88.13
2018-12-01T16:53:21.381Z,87.20
2018-12-01T16:55:49.854Z,88.62
2018-12-01T16:58:18.395Z,88.01
2018-12-01T17:00:46.813Z,86.75
2018-12-01T17:03:16.398Z,87.26
2018-12-01T17:05:51.085Z,88.35
2018-12-01T17:08:19.682Z,88.43
2018-12-01T17:10:49.070Z,88.61
2018-12-01T17:13:19.909Z,88.56
2018-12-01T17:15:48.389Z,88.17
2018-12-01T17:18:16.903Z,88.89
2018-12-01T17:20:45.414Z,89.06
2018-12-01T17:23:15.543Z,88.04
2018-12-01T17:25:44.024Z,88.55
2018-12-01T17:28:15.203Z,89.09
2018-12-01T17:30:43.913Z,88.20
2018-12-01T17:33:12.521Z,88.53
2018-12-01T17:35:41.020Z,88.62
2018-12-01T17:38:11.890Z,88.13
2018-12-01T17:40:49.431Z,88.07
2018-12-01T17:43:21.722Z,88.29
2018-12-01T17:45:51.161Z,87.73
2018-12-01T17:48:20.301Z,87.60
2018-12-01T17:50:48.841Z,87.68
2018-12-01T17:53:17.791Z,87.87
2018-12-01T17:55:46.335Z,86.72
2018-12-01T17:58:15.152Z,86.70
2018-12-01T18:00:43.684Z,86.19
2018-12-01T18:03:12.779Z,87.14
2018-12-01T18:05:47.300Z,86.25
2018-12-01T18:08:19.257Z,86.15
2018-12-01T18:10:49.328Z,86.99
2018-12-01T18:13:19.655Z,86.13
2018-12-01T18:15:48.212Z,86.28
2018-12-01T18:18:16.712Z,86.62
2018-12-01T18:20:45.729Z,86.57
2018-12-01T18:23:16.821Z,86.08
2018-12-01T18:25:48.116Z,86.48
2018-12-01T18:28:20.900Z,86.60
2018-12-01T18:30:49.754Z,86.06
2018-12-01T18:33:24.757Z,86.02
2018-12-01T18:35:53.337Z,85.85
2018-12-01T18:38:21.934Z,86.58
2018-12-01T18:40:50.528Z,85.59
2018-12-01T18:43:19.944Z,86.25
2018-12-01T18:45:51.217Z,85.23
2018-12-01T18:48:19.715Z,85.15
2018-12-01T18:50:48.329Z,85.87
2018-12-01T18:53:17.101Z,85.91
2018-12-01T18:55:48.827Z,85.93
2018-12-01T18:58:17.840Z,84.69
2018-12-01T19:00:49.683Z,84.67
2018-12-01T19:03:19.856Z,84.79
2018-12-01T19:05:48.382Z,84.81
2018-12-01T19:08:18.575Z,85.18
2018-12-01T19:10:47.723Z,85.67
2018-12-01T19:13:16.666Z,85.14
2018-12-01T19:15:45.155Z,85.69
2018-12-01T19:18:14.902Z,84.22
2018-12-01T19:20:43.458Z,84.31
2018-12-01T19:23:13.659Z,83.92
2018-12-01T19:25:43.845Z,83.88
2018-12-01T19:28:12.427Z,83.70
2018-12-01T19:30:41.150Z,83.95
2018-12-01T19:33:17.846Z,83.62
2018-12-01T19:35:47.522Z,84.27
2018-12-01T19:38:19.859Z,83.76
2018-12-01T19:40:48.783Z,83.75
2018-12-01T19:43:18.118Z,83.88
2018-12-01T19:45:46.691Z,83.58
2018-12-01T19:48:15.489Z,83.58
2018-12-01T19:50:44.069Z,83.67
2018-12-01T19:53:14.097Z,82.75
2018-12-01T19:55:43.462Z,84.03
2018-12-01T19:58:17.053Z,85.03
2018-12-01T20:00:47.600Z,83.63
2018-12-01T20:03:19.521Z,83.87
2018-12-01T20:05:48.063Z,83.68
2018-12-01T20:08:18.266Z,84.11
2018-12-01T20:10:52.837Z,84.42
2018-12-01T20:13:27.051Z,84.23
2018-12-01T20:16:00.727Z,84.25
2018-12-01T20:18:29.638Z,84.82
2018-12-01T20:20:58.261Z,84.59
2018-12-01T20:23:28.574Z,85.41
2018-12-01T20:25:57.177Z,86.68
2018-12-01T20:28:25.683Z,87.78
2018-12-01T20:30:54.231Z,88.49
2018-12-01T20:33:23.352Z,88.73
2018-12-01T20:35:56.979Z,89.05
2018-12-01T20:38:30.629Z,90.28
2018-12-01T20:40:59.138Z,90.59
2018-12-01T20:43:28.363Z,91.12
2018-12-01T20:45:57.623Z,91.43
2018-12-01T20:48:26.084Z,91.51
2018-12-01T20:50:54.611Z,91.80
2018-12-01T20:53:23.141Z,92.65
2018-12-01T20:55:54.159Z,91.76
2018-12-01T20:58:23.297Z,92.61
2018-12-01T21:00:51.775Z,92.02
2018-12-01T21:03:20.303Z,92.21
2018-12-01T21:05:48.851Z,92.91
2018-12-01T21:08:17.314Z,92.43
2018-12-01T21:10:56.331Z,93.39
2018-12-01T21:13:25.514Z,93.25
2018-12-01T21:15:54.015Z,94.26
2018-12-01T21:18:22.507Z,94.22
2018-12-01T21:20:51.144Z,94.11
2018-12-01T21:23:19.637Z,94.14
2018-12-01T21:25:48.149Z,93.91
2018-12-01T21:28:17.210Z,94.52
2018-12-01T21:30:46.894Z,94.07
2018-12-01T21:33:20.516Z,95.12
2018-12-01T21:35:50.054Z,95.44
2018-12-01T21:38:18.731Z,94.48
2018-12-01T21:40:47.266Z,94.55
2018-12-01T21:43:16.012Z,94.01
2018-12-01T21:45:44.543Z,94.71
2018-12-01T21:48:14.052Z,94.45
2018-12-01T21:50:43.366Z,94.12
2018-12-01T21:53:28.446Z,94.57
2018-12-01T21:55:57.022Z,94.75
2018-12-01T21:58:25.536Z,94.21
2018-12-01T22:00:56.333Z,94.68
2018-12-01T22:03:26.966Z,94.45
2018-12-01T22:05:58.326Z,94.39
2018-12-01T22:08:27.378Z,94.57
2018-12-01T22:10:57.223Z,94.59
2018-12-01T22:13:26.542Z,94.78
2018-12-01T22:15:55.322Z,95.48
2018-12-01T22:18:24.725Z,95.30
2018-12-01T22:20:53.472Z,95.66
2018-12-01T22:23:22.226Z,94.91
2018-12-01T22:25:50.816Z,94.93
2018-12-01T22:28:20.048Z,95.31
2018-12-01T22:30:51.582Z,94.71
2018-12-01T22:33:23.234Z,95.30
2018-12-01T22:35:52.534Z,96.42
2018-12-01T22:38:21.209Z,96.19
2018-12-01T22:40:49.702Z,95.94
2018-12-01T22:43:18.295Z,95.98
2018-12-01T22:45:46.816Z,96.10
2018-12-01T22:48:17.086Z,95.51
2018-12-01T22:50:47.274Z,95.60
2018-12-01T22:53:15.870Z,96.32
2018-12-01T22:55:44.805Z,96.67
2018-12-01T22:58:14.690Z,96.04
2018-12-01T23:00:58.879Z,96.45
2018-12-01T23:03:32.050Z,96.94
2018-12-01T23:06:01.224Z,96.78
2018-12-01T23:08:31.284Z,96.67
2018-12-01T23:10:59.953Z,95.92
2018-12-01T23:13:28.649Z,96.32
2018-12-01T23:15:57.246Z,96.78
2018-12-01T23:18:26.533Z,97.16
2018-12-01T23:20:55.013Z,97.05
2018-12-01T23:23:23.519Z,97.19
2018-12-01T23:25:52.170Z,96.89
2018-12-01T23:28:20.765Z,96.98
2018-12-01T23:30:53.967Z,97.15
2018-12-01T23:33:23.822Z,97.14
2018-12-01T23:35:52.497Z,97.08
2018-12-01T23:38:21.799Z,97.60
2018-12-01T23:40:50.422Z,97.09
2018-12-01T23:43:19.824Z,96.52
2018-12-01T23:45:48.435Z,97.27
2018-12-01T23:48:17.015Z,96.98
2018-12-01T23:50:50.354Z,96.63
2018-12-01T23:53:19.698Z,96.98
2018-12-01T23:55:48.195Z,97.45
2018-12-01T23:58:16.772Z,97.02
